Time;durP1;ratioP1;P1;durP2;ratioP2;P2;SDS_P1;SDS_P2;PMS_P1;PMS_P2;Temp;Humidity;BMP_temperature;BMP_pressure;BME280_temperature;BME280_humidity;BME280_pressure;Samples;Min_cycle;Max_cycle;Signal;HPM_P1;HPM_P2
2022/04/22 00:05:27;;;;;;;;;;;;;;;;;;20914498;28;19920;-63
2022/04/22 00:15:30;;;;;;;;;;;;;;;;;;20915190;28;19928;-68
2022/04/22 00:25:32;;;;;;;;;;;;;;;;;;20914169;28;20313;-64
2022/04/22 00:35:34;;;;;;;;;;;;;;;;;;20915244;28;19921;-74
2022/04/22 00:45:36;;;;;;;;;;;;;;;;;;20929897;28;20008;-66
2022/04/22 00:55:37;;;;;;;;;;;;;;;;;;20929302;28;19927;-67
2022/04/22 01:16:01;;;;;;;;;;;;;;;;;;20927683;28;20019;-71
2022/04/22 01:26:03;;;;;;;;;;;;;;;;;;20928308;28;19921;-72
2022/04/22 01:36:07;;;;;;;;;;;;;;;;;;20926640;28;19921;-70
2022/04/22 01:46:14;;;;;;;;;;;;;;;;;;20925278;28;20334;-74
2022/04/22 01:56:20;;;;;;;;;;;;;;;;;;20925225;28;19921;-72
2022/04/22 02:06:32;;;;;;;;;;;;;;;;;;20923610;28;20016;-74
2022/04/22 02:16:45;;;;;;;;;;;;;;;;;;20923256;28;20008;-67
2022/04/22 02:37:16;;;;;;;;;;;;;;;;;;20921849;28;19959;-70
2022/04/22 02:47:19;;;;;;;;;;;;;;;;;;20920383;28;19979;-65
2022/04/22 02:57:21;;;;;;;;;;;;;;;;;;20921446;28;19947;-75
2022/04/22 03:07:23;;;;;;;;;;;;;;;;;;20920635;28;19971;-73
2022/04/22 03:17:25;;;;;;;;;;;;;;;;;;20918767;28;19921;-65
2022/04/22 03:27:27;;;;;;;;;;;;;;;;;;20899631;28;20003;-72
2022/04/22 03:37:29;;;;;;;;;;;;;;;;;;20916867;28;19925;-73
2022/04/22 03:47:33;;;;;;;;;;;;;;;;;;20918265;28;20393;-66
2022/04/22 04:07:55;;;;;;;;;;;;;;;;;;20922455;28;19924;-64
2022/04/22 04:17:57;;;;;;;;;;;;;;;;;;20914065;28;19929;-66
2022/04/22 04:28:00;;;;;;;;;;;;;;;;;;20913236;28;19924;-61
2022/04/22 04:38:02;;;;;;;;;;;;;;;;;;20913774;28;20476;-62
2022/04/22 04:48:10;;;;;;;;;;;;;;;;;;20912311;28;19925;-66
2022/04/22 04:58:12;;;;;;;;;;;;;;;;;;20913341;28;19920;-64
2022/04/22 05:08:15;;;;;;;;;;;;;;;;;;20915189;28;20351;-68
2022/04/22 05:18:18;;;;;;;;;;;;;;;;;;20911856;28;19995;-68
2022/04/22 05:28:19;;;;;;;;;;;;;;;;;;20922848;28;19925;-63
2022/04/22 05:38:24;;;;;;;;;;;;;;;;;;20927211;28;20016;-64
2022/04/22 05:48:28;;;;;;;;;;;;;;;;;;20925075;28;19920;-62
2022/04/22 05:58:29;;;;;;;;;;;;;;;;;;20925256;28;19924;-62
2022/04/22 06:18:52;;;;;;;;;;;;;;;;;;20923044;28;19990;-63
2022/04/22 06:28:54;;;;;;;;;;;;;;;;;;20922024;28;19921;-61
2022/04/22 06:38:58;;;;;;;;;;;;;;;;;;20921017;28;19921;-65
2022/04/22 06:49:00;;;;;;;;;;;;;;;;;;20920104;28;19931;-63
2022/04/22 06:59:02;;;;;;;;;;;;;;;;;;20919502;28;19974;-67
2022/04/22 07:09:07;;;;;;;;;;;;;;;;;;20919468;28;20282;-62
2022/04/22 07:19:09;;;;;;;;;;;;;;;;;;20917908;28;19921;-60
2022/04/22 07:29:11;;;;;;;;;;;;;;;;;;20916362;28;20017;-60
2022/04/22 07:39:12;;;;;;;;;;;12.50;65.80;;;;;;20897238;28;20055;-57
2022/04/22 07:49:14;;;;;;;;;;;12.50;66.00;;;;;;20961515;28;19928;-67
2022/04/22 07:59:15;;;;;;;;;;;13.20;63.60;;;;;;20992519;28;19920;-61
2022/04/22 08:09:17;;;;;;;;;;;13.30;62.20;;;;;;20988560;28;19920;-63
2022/04/22 08:19:19;;;;;;;;;;;13.30;62.90;;;;;;20994831;28;19959;-62
2022/04/22 08:29:21;;;;;;;;;;;13.20;64.10;;;;;;20922978;28;19924;-66
2022/04/22 08:39:22;;;;;;;;;;;13.30;64.30;;;;;;20913394;28;19921;-66
2022/04/22 08:59:44;;;;;;;;;;;13.40;62.70;;;;;;20920139;28;19990;-64
2022/04/22 09:09:50;;;;;;;;;;;13.00;65.10;;;;;;20929252;28;20282;-65
2022/04/22 09:19:53;;;;;;;;;;;12.90;66.10;;;;;;20927034;28;20057;-66
2022/04/22 09:29:55;;;;;;;;;;;13.10;65.10;;;;;;20926202;28;19921;-63
2022/04/22 09:50:47;;;;;;;;;;;13.00;65.60;;;;;;20925696;28;20014;-64
2022/04/22 10:00:52;;;;;;;;;;;13.20;65.00;;;;;;20930818;28;20311;-64
2022/04/22 10:10:54;;;;;;;;;;;;;;;;;;20922984;28;20018;-64
2022/04/22 10:20:55;;;;;;;;;;;;;;;;;;20904862;28;19921;-63
2022/04/22 10:31:00;;;;;;;;;;;;;;;;;;20919535;28;20353;-63
2022/04/22 10:41:02;;;;;;;;;;;;;;;;;;20920589;28;19968;-66
2022/04/22 10:51:03;;;;;;;;;;;;;;;;;;20920734;28;20325;-63
2022/04/22 11:01:05;;;;;;;;;;;;;;;;;;20920747;28;19921;-62
2022/04/22 11:11:06;;;;;;;;;;;;;;;;;;20919149;28;19920;-63
2022/04/22 11:21:09;;;;;;;;;;;;;;;;;;20917437;28;19974;-63
2022/04/22 11:31:11;;;;;;;;;;;;;;;;;;20917040;28;19928;-63
2022/04/22 11:41:13;;;;;;;;;;;;;;;;;;20916683;28;20016;-63
2022/04/22 11:51:15;;;;;;;;;;;;;;;;;;20916089;28;19925;-64
2022/04/22 12:11:37;;;;;;;;;;;;;;;;;;20914086;28;19921;-64
2022/04/22 12:21:39;;;;;;;;;;;;;;;;;;20913825;28;19925;-62
2022/04/22 12:31:41;;;;;;;;;;;;;;;;;;20912330;28;19921;-63
2022/04/22 12:41:44;;;;;;;;;;;;;;;;;;20911485;28;20008;-64
2022/04/22 13:02:07;;;;;;;;;;;;;;;;;;20913059;28;19974;-64
2022/04/22 13:12:08;;;;;;;;;;;;;;;;;;20911537;28;19967;-64
2022/04/22 13:22:11;;;;;;;;;;;;;;;;;;20911006;28;20007;-64
2022/04/22 13:32:13;;;;;;;;;;;;;;;;;;20910108;28;19921;-64
2022/04/22 13:42:20;;;;;;;;;;;;;;;;;;20908373;28;19925;-63
2022/04/22 13:52:22;;;;;;;;;;;;;;;;;;20924516;28;19925;-63
2022/04/22 14:02:24;;;;;;;;;;;;;;;;;;20923507;28;19921;-64
2022/04/22 14:12:26;;;;;;;;;;;;;;;;;;20922301;28;20020;-63
2022/04/22 14:22:27;;;;;;;;;;;;;;;;;;20921923;28;19924;-64
2022/04/22 14:32:29;;;;;;;;;;;;;;;;;;20922133;28;20447;-63
2022/04/22 14:42:31;;;;;;;;;;;;;;;;;;20921583;28;19921;-64
2022/04/22 14:52:33;;;;;;;;;;;;;;;;;;20919895;28;20347;-63
2022/04/22 15:02:35;;;;;;;;;;;;;;;;;;20918233;28;19971;-63
2022/04/22 15:12:38;;;;;;;;;;;;;;;;;;20917714;28;20062;-64
2022/04/22 15:33:00;;;;;;;;;;;;;;;;;;20916814;28;19939;-62
2022/04/22 15:43:01;;;;;;;;;;;;;;;;;;20914827;28;19964;-62
2022/04/22 15:53:03;;;;;;;;;;;;;;;;;;20914248;28;19956;-62
2022/04/22 16:03:05;;;;;;;;;;;;;;;;;;20913592;28;19921;-62
2022/04/22 16:23:27;;;;;;;;;;;;;;;;;;20912448;28;19928;-62
2022/04/22 16:33:28;;;;;;;;;;;12.70;69.60;;;;;;20939129;28;20430;-62
2022/04/22 16:43:29;;;;;;;;;;;12.50;69.40;;;;;;20994026;28;19924;-62
2022/04/22 16:53:35;;;;;;;;;;;12.10;71.80;;;;;;20994144;28;20010;-64
2022/04/22 17:03:36;;;;;;;;;;;12.00;71.10;;;;;;20993729;28;19959;-64
2022/04/22 17:13:37;;;;;;;;;;;11.50;73.50;;;;;;20994305;28;19964;-68
2022/04/22 17:23:38;;;;;;;;;;;11.30;71.30;;;;;;21005480;28;19921;-65
2022/04/22 17:33:40;;;;;;;;;;;11.10;73.70;;;;;;21009448;28;20041;-68
2022/04/22 17:43:41;;;;;;;;;;;11.00;74.30;;;;;;21007764;28;20465;-64
2022/04/22 17:53:43;;;;;;;;;;;;;;;;;;21008968;28;19920;-59
2022/04/22 18:03:45;;;;;;;;;;;;;;;;;;20944581;28;19944;-63
2022/04/22 18:13:47;;;;;;;;;;;12.40;69.50;;;;;;20923404;28;19966;-62
2022/04/22 18:23:49;;;;;;;;;;;11.60;73.30;;;;;;20921663;28;19974;-66
2022/04/22 18:33:50;;;;;;;;;;;11.20;75.50;;;;;;20919400;28;19972;-62
2022/04/22 18:43:56;;;;;;;;;;;10.90;76.80;;;;;;20919548;28;20350;-61
2022/04/22 18:53:57;;;;;;;;;;;10.90;76.40;;;;;;20921553;28;19977;-60
2022/04/22 19:03:59;;;;;;;;;;;;;;;;;;20928862;28;19973;-56
2022/04/22 19:14:00;;;;;;;;;;;;;;;;;;21000668;28;20011;-62
2022/04/22 19:24:01;;;;;;;;;;;;;;;;;;20999677;28;20373;-64
2022/04/22 19:34:05;;;;;;;;;;;;;;;;;;20999778;28;20294;-65
2022/04/22 19:44:06;;;;;;;;;;;;;;;;;;20997798;28;19928;-67
2022/04/22 19:54:10;;;;;;;;;;;;;;;;;;20998457;28;19927;-61
2022/04/22 20:04:12;;;;;;;;;;;;;;;;;;20997016;28;19920;-64
2022/04/22 20:14:13;;;;;;;;;;;;;;;;;;20997487;28;19928;-65
2022/04/22 20:24:15;;;;;;;;;;;;;;;;;;20997667;28;19920;-60
2022/04/22 20:34:18;;;;;;;;;;;;;;;;;;20996461;28;19946;-61
2022/04/22 20:44:19;;;;;;;;;;;;;;;;;;20995488;28;19965;-61
2022/04/22 20:54:21;;;;;;;;;;;;;;;;;;21000440;28;20274;-62
2022/04/22 21:04:24;;;;;;;;;;;;;;;;;;20993941;28;19920;-64
2022/04/22 21:14:27;;;;;;;;;;;;;;;;;;21011551;28;20421;-62
2022/04/22 21:24:29;;;;;;;;;;;;;;;;;;21010684;28;19972;-62
2022/04/22 21:34:30;;;;;;;;;;;;;;;;;;21010708;28;19924;-62
2022/04/22 21:44:32;;;;;;;;;;;;;;;;;;21008094;28;19920;-62
2022/04/22 21:54:36;;;;;;;;;;;;;;;;;;21008568;28;19920;-62
2022/04/22 22:04:38;;;;;;;;;;;;;;;;;;21007042;28;19924;-61
2022/04/22 22:14:40;;;;;;;;;;;;;;;;;;21007876;28;20324;-61
2022/04/22 22:24:42;;;;;;;;;;;;;;;;;;21006396;28;20012;-61
2022/04/22 22:34:44;;;;;;;;;;;;;;;;;;21004677;28;19968;-61
2022/04/22 22:44:45;;;;;;;;;;;;;;;;;;21004104;28;19971;-62
2022/04/22 22:54:47;;;;;;;;;;;;;;;;;;21004250;28;19962;-64
2022/04/22 23:04:52;;;;;;;;;;;;;;;;;;21001904;28;19926;-61
2022/04/22 23:14:54;;;;;;;;;;;;;;;;;;21001286;28;19920;-62
2022/04/22 23:24:55;;;;;;;;;;;;;;;;;;21001624;28;20329;-65
2022/04/22 23:34:57;;;;;;;;;;;;;;;;;;21001158;28;19955;-64
2022/04/22 23:44:59;;;;;;;;;;;;;;;;;;20998837;28;20267;-61
2022/04/22 23:55:00;;;;;;;;;;;;;;;;;;20999358;28;20406;-62
